Terminal Aerodrome Forecast
Issued by NWS Blacksburg, VA

Home | Current Version | Previous Version | Text Only | Print | Product List | Glossary On
Versions: 1 2 3 4 5 6 7 8 9 10 11 12 13 14 15 16 17 18 19 20 21 22 23 24 25 26 27 28 29 30 31 32
000
FTUS41 KRNK 292333
TAFROA
TAF
KROA 292333Z 3000/3024 12007KT 5SM BR VCSH OVC012
      TEMPO 3000/3001 1SM SHRA BR SCT012 OVC030
     FM300300 10006KT 4SM BR OVC006
     FM300900 09006KT 3SM -RA BR OVC005
     FM301500 09006KT 6SM BR VCSH OVC012
     FM301800 11007KT P6SM VCSH BKN030=

USA.gov is the U.S. government's official web portal to all federal, state and local government web resources and services.